createdAt,value
2022-10-29T00:02:40.377Z,12.80
2022-10-29T00:05:43.315Z,12.00
2022-10-29T00:08:46.254Z,12.60
2022-10-29T00:11:49.097Z,12.80
2022-10-29T00:14:51.924Z,12.80
2022-10-29T00:17:55.150Z,12.40
2022-10-29T00:21:03.273Z,11.90
2022-10-29T00:24:06.655Z,12.10
2022-10-29T00:27:09.603Z,13.00
2022-10-29T00:30:13.149Z,13.20
2022-10-29T00:36:29.142Z,13.00
2022-10-29T00:39:33.563Z,13.40
2022-10-29T00:42:36.522Z,12.40
2022-10-29T00:45:45.359Z,12.50
2022-10-29T00:48:51.700Z,13.10
2022-10-29T00:51:55.177Z,13.10
2022-10-29T00:55:02.794Z,12.10
2022-10-29T00:58:05.722Z,12.90
2022-10-29T01:01:08.786Z,13.60
2022-10-29T01:04:12.066Z,13.20
2022-10-29T01:07:15.093Z,13.00
2022-10-29T01:10:23.587Z,12.50
2022-10-29T01:13:50.935Z,13.00
2022-10-29T01:16:59.662Z,11.80
2022-10-29T01:20:11.702Z,12.70
2022-10-29T01:23:39.111Z,12.60
2022-10-29T01:27:23.758Z,13.00
2022-10-29T01:30:47.870Z,12.90
2022-10-29T01:34:11.792Z,13.10
2022-10-29T01:37:31.562Z,12.80
2022-10-29T01:40:45.553Z,13.30
2022-10-29T01:43:55.848Z,12.70
2022-10-29T01:47:02.706Z,13.20
2022-10-29T01:50:09.893Z,13.90
2022-10-29T01:53:13.427Z,13.10
2022-10-29T01:56:16.494Z,12.90
2022-10-29T01:59:35.221Z,13.30
2022-10-29T02:02:58.216Z,12.30
2022-10-29T02:06:09.848Z,13.50
2022-10-29T02:09:27.795Z,14.10
2022-10-29T02:12:40.262Z,12.90
2022-10-29T02:15:48.379Z,13.30
2022-10-29T02:18:51.611Z,14.20
2022-10-29T02:21:54.532Z,14.20
2022-10-29T02:24:57.406Z,15.10
2022-10-29T02:28:00.372Z,14.10
2022-10-29T02:31:03.560Z,14.10
2022-10-29T02:34:06.440Z,13.50
2022-10-29T02:37:09.344Z,13.50
2022-10-29T02:40:12.802Z,14.10
2022-10-29T02:43:15.721Z,14.40
2022-10-29T02:46:21.114Z,14.00
2022-10-29T02:49:24.072Z,13.50
2022-10-29T02:52:26.941Z,13.50
2022-10-29T02:55:29.845Z,13.60
2022-10-29T02:58:33.010Z,12.20
2022-10-29T03:01:35.933Z,13.90
2022-10-29T03:04:39.550Z,13.60
2022-10-29T03:07:42.412Z,13.60
2022-10-29T03:10:45.370Z,14.40
2022-10-29T03:13:48.389Z,14.70
2022-10-29T03:16:51.303Z,15.20
2022-10-29T03:19:54.337Z,15.10
2022-10-29T03:22:57.223Z,15.00
2022-10-29T03:26:00.106Z,15.30
2022-10-29T03:29:03.139Z,15.50
2022-10-29T03:32:06.100Z,16.20
2022-10-29T03:35:10.700Z,16.30
2022-10-29T03:38:13.596Z,16.40
2022-10-29T03:41:16.442Z,15.80
2022-10-29T03:44:19.281Z,15.80
2022-10-29T03:47:22.189Z,15.60
2022-10-29T03:50:25.040Z,15.30
2022-10-29T03:53:29.126Z,15.10
2022-10-29T03:56:32.017Z,15.00
2022-10-29T03:59:34.947Z,15.10
2022-10-29T04:02:37.907Z,14.90
2022-10-29T04:05:40.857Z,15.20
2022-10-29T04:08:43.920Z,15.10
2022-10-29T04:11:46.816Z,15.20
2022-10-29T04:17:57.579Z,16.50
2022-10-29T04:31:12.350Z,18.90
2022-10-29T04:34:15.300Z,19.10
2022-10-29T04:37:18.178Z,18.30
2022-10-29T04:40:23.520Z,17.40
2022-10-29T04:43:27.441Z,16.80
2022-10-29T04:46:30.321Z,16.50
2022-10-29T04:49:33.291Z,16.70
2022-10-29T04:52:36.184Z,17.20
2022-10-29T04:55:39.580Z,16.90
2022-10-29T04:58:42.444Z,16.20
2022-10-29T05:01:45.357Z,16.00
2022-10-29T05:04:48.207Z,16.90
2022-10-29T05:08:00.106Z,16.80
2022-10-29T05:11:06.997Z,16.30
2022-10-29T05:14:09.897Z,15.30
2022-10-29T05:17:12.809Z,14.70
2022-10-29T05:20:15.688Z,16.50
2022-10-29T05:23:18.584Z,16.10
2022-10-29T05:26:21.499Z,14.60
2022-10-29T05:29:24.381Z,14.50
2022-10-29T05:32:30.524Z,13.40
2022-10-29T05:35:34.010Z,13.10
2022-10-29T05:38:36.887Z,12.50
2022-10-29T05:41:39.792Z,13.20
2022-10-29T05:44:42.646Z,12.80
2022-10-29T05:47:45.535Z,11.90
2022-10-29T05:50:48.456Z,11.90
2022-10-29T05:53:51.518Z,11.00
2022-10-29T05:56:54.434Z,10.70
2022-10-29T05:59:57.317Z,11.10
2022-10-29T06:03:00.919Z,10.50
2022-10-29T06:06:04.284Z,10.10
2022-10-29T06:09:07.346Z,10.10
2022-10-29T06:12:10.298Z,10.90
2022-10-29T06:15:13.237Z,10.50
2022-10-29T06:18:16.582Z,9.80
2022-10-29T06:21:20.230Z,10.20
2022-10-29T06:24:23.261Z,8.60
2022-10-29T06:27:26.602Z,9.10
2022-10-29T06:30:30.899Z,8.70
2022-10-29T06:33:36.357Z,9.10
2022-10-29T06:36:39.304Z,8.20
2022-10-29T06:39:42.170Z,9.50
2022-10-29T06:42:45.120Z,8.60
2022-10-29T06:45:49.793Z,8.50
2022-10-29T06:48:52.671Z,8.40
2022-10-29T06:51:55.540Z,8.20
2022-10-29T06:54:58.380Z,8.50
2022-10-29T06:58:03.935Z,8.60
2022-10-29T07:01:06.912Z,7.10
2022-10-29T07:04:09.827Z,15.20
2022-10-29T07:07:12.828Z,9.10
2022-10-29T07:10:15.878Z,8.30
2022-10-29T07:13:18.771Z,8.20
2022-10-29T07:16:21.682Z,8.00
2022-10-29T07:19:24.571Z,8.10
2022-10-29T07:22:32.447Z,7.80
2022-10-29T07:25:39.001Z,7.20
2022-10-29T07:28:42.524Z,7.50
2022-10-29T07:31:45.676Z,7.90
2022-10-29T07:34:48.536Z,8.60
2022-10-29T07:37:51.437Z,6.90
2022-10-29T07:40:54.586Z,7.00
2022-10-29T07:43:57.443Z,6.20
2022-10-29T07:47:02.178Z,6.30
2022-10-29T07:50:05.389Z,5.90
2022-10-29T07:53:08.540Z,6.10
2022-10-29T07:56:11.693Z,5.90
2022-10-29T07:59:15.899Z,5.80
2022-10-29T08:02:18.779Z,5.30
2022-10-29T08:05:22.472Z,5.80
2022-10-29T08:08:25.703Z,5.70
2022-10-29T08:11:28.611Z,7.70
2022-10-29T08:14:31.462Z,5.50
2022-10-29T08:17:34.312Z,5.60
2022-10-29T08:20:37.187Z,5.10
2022-10-29T08:23:39.965Z,5.30
2022-10-29T08:26:42.847Z,4.80
2022-10-29T08:29:45.641Z,5.50
2022-10-29T08:32:48.599Z,5.30
2022-10-29T08:35:52.735Z,4.70
2022-10-29T08:38:55.584Z,6.60
2022-10-29T08:42:17.071Z,4.70
2022-10-29T08:45:30.298Z,4.70
2022-10-29T08:48:36.921Z,4.40
2022-10-29T08:51:44.406Z,4.20
2022-10-29T08:55:10.155Z,4.20
2022-10-29T08:58:27.868Z,3.80
2022-10-29T09:01:31.160Z,4.20
2022-10-29T09:04:36.620Z,3.90
2022-10-29T09:07:57.127Z,3.90
2022-10-29T09:11:33.808Z,4.10
2022-10-29T09:18:02.072Z,4.20
2022-10-29T09:21:18.579Z,3.50
2022-10-29T09:24:38.769Z,3.70
2022-10-29T09:28:02.980Z,3.80
2022-10-29T09:31:34.683Z,4.30
2022-10-29T09:34:50.903Z,3.80
2022-10-29T09:37:59.115Z,3.90
2022-10-29T09:41:03.978Z,3.90
2022-10-29T09:44:25.134Z,3.40
2022-10-29T09:47:51.713Z,3.70
2022-10-29T09:51:06.067Z,3.90
2022-10-29T09:54:09.404Z,3.50
2022-10-29T09:57:20.464Z,3.60
2022-10-29T10:00:26.457Z,3.80
2022-10-29T10:03:35.369Z,3.90
2022-10-29T10:07:11.623Z,4.10
2022-10-29T10:10:22.769Z,4.00
2022-10-29T10:13:29.638Z,4.60
2022-10-29T10:16:33.476Z,4.50
2022-10-29T10:19:44.479Z,5.10
2022-10-29T10:22:47.575Z,4.50
2022-10-29T10:25:53.378Z,4.10
2022-10-29T10:29:17.520Z,4.50
2022-10-29T10:32:25.707Z,4.60
2022-10-29T10:35:32.201Z,4.00
2022-10-29T10:38:42.050Z,4.60
2022-10-29T10:41:45.810Z,4.60
2022-10-29T10:45:15.104Z,4.20
2022-10-29T10:48:18.199Z,4.30
2022-10-29T10:51:28.933Z,4.50
2022-10-29T10:54:55.286Z,4.20
2022-10-29T10:58:03.863Z,3.90
2022-10-29T11:01:22.538Z,3.90
2022-10-29T11:04:31.203Z,4.10
2022-10-29T11:07:36.860Z,4.20
2022-10-29T11:10:46.186Z,4.00
2022-10-29T11:13:50.551Z,4.10
2022-10-29T11:16:59.220Z,3.90
2022-10-29T11:20:08.532Z,3.80
2022-10-29T11:23:17.043Z,4.40
2022-10-29T11:26:29.654Z,4.40
2022-10-29T11:29:48.963Z,4.00
2022-10-29T11:36:30.133Z,4.10
2022-10-29T11:39:49.011Z,3.70
2022-10-29T11:42:51.924Z,4.00
2022-10-29T11:46:04.045Z,4.00
2022-10-29T11:50:01.452Z,4.30
2022-10-29T11:53:15.172Z,3.20
2022-10-29T11:56:41.133Z,4.10
2022-10-29T11:59:58.462Z,3.70
2022-10-29T12:03:14.424Z,3.90
2022-10-29T12:06:26.471Z,3.50
2022-10-29T12:09:47.851Z,3.50
2022-10-29T12:13:04.635Z,3.60
2022-10-29T12:17:02.960Z,3.60
2022-10-29T12:20:29.502Z,3.40
2022-10-29T12:23:50.465Z,3.50
2022-10-29T12:27:09.277Z,3.60
2022-10-29T12:30:16.885Z,3.50
2022-10-29T12:33:28.755Z,3.50
2022-10-29T12:36:48.969Z,4.10
2022-10-29T12:40:00.187Z,3.90
2022-10-29T12:43:07.391Z,3.30
2022-10-29T12:47:03.119Z,3.70
2022-10-29T12:50:34.209Z,4.00
2022-10-29T12:54:09.079Z,4.00
2022-10-29T12:57:14.726Z,4.10
2022-10-29T13:00:23.545Z,3.70
2022-10-29T13:04:02.713Z,4.30
2022-10-29T13:07:23.363Z,4.30
2022-10-29T13:10:36.299Z,4.40
2022-10-29T13:13:50.413Z,3.90
2022-10-29T13:16:54.822Z,3.90
2022-10-29T13:20:00.885Z,3.80
2022-10-29T13:23:23.955Z,4.40
2022-10-29T13:27:00.039Z,4.30
2022-10-29T13:30:18.199Z,4.20
2022-10-29T13:33:23.968Z,4.70
2022-10-29T13:36:29.348Z,5.00
2022-10-29T13:39:32.200Z,4.50
2022-10-29T13:42:35.163Z,5.30
2022-10-29T13:45:41.598Z,4.70
2022-10-29T13:48:46.206Z,5.00
2022-10-29T13:51:57.305Z,5.70
2022-10-29T13:55:05.417Z,5.80
2022-10-29T13:58:13.063Z,4.70
2022-10-29T14:01:19.151Z,4.80
2022-10-29T14:04:31.572Z,4.50
2022-10-29T14:07:46.267Z,5.40
2022-10-29T14:10:53.655Z,4.50
2022-10-29T14:14:00.658Z,5.00
2022-10-29T14:17:18.888Z,5.00
2022-10-29T14:20:28.921Z,5.30
2022-10-29T14:23:33.130Z,5.20
2022-10-29T14:26:41.831Z,5.10
2022-10-29T14:29:44.846Z,5.60
2022-10-29T14:32:47.797Z,6.30
2022-10-29T14:35:53.115Z,6.70
2022-10-29T14:39:04.731Z,7.20
2022-10-29T14:45:28.812Z,7.80
2022-10-29T14:48:31.925Z,8.60
2022-10-29T14:51:40.830Z,10.80
2022-10-29T14:54:48.713Z,8.50
2022-10-29T14:58:06.850Z,8.00
2022-10-29T15:01:15.709Z,8.50
2022-10-29T15:04:21.754Z,9.60
2022-10-29T15:07:29.509Z,8.60
2022-10-29T15:10:32.908Z,9.90
2022-10-29T15:13:37.325Z,8.90
2022-10-29T15:16:42.411Z,8.30
2022-10-29T15:19:46.679Z,8.90
2022-10-29T15:22:54.926Z,12.10
2022-10-29T15:26:02.341Z,10.40
2022-10-29T15:29:10.703Z,10.70
2022-10-29T15:32:16.449Z,10.90
2022-10-29T15:35:21.344Z,12.10
2022-10-29T15:38:30.074Z,9.90
2022-10-29T15:41:47.354Z,12.60
2022-10-29T15:45:08.466Z,11.50
2022-10-29T15:48:12.242Z,15.90
2022-10-29T15:51:15.717Z,16.70
2022-10-29T15:54:18.681Z,11.40
2022-10-29T15:57:21.825Z,13.30
2022-10-29T16:00:24.880Z,16.40
2022-10-29T16:03:28.206Z,14.60
2022-10-29T16:06:31.845Z,14.80
2022-10-29T16:09:34.829Z,16.10
2022-10-29T16:12:37.646Z,16.60
2022-10-29T16:15:43.311Z,16.80
2022-10-29T16:18:49.762Z,18.00
2022-10-29T16:21:56.685Z,18.00
2022-10-29T16:25:01.131Z,17.60
2022-10-29T16:28:04.368Z,17.90
2022-10-29T16:31:24.706Z,19.00
2022-10-29T16:34:27.574Z,17.30
2022-10-29T16:37:30.401Z,18.50
2022-10-29T16:40:33.280Z,16.70
2022-10-29T16:43:36.153Z,17.30
2022-10-29T16:46:39.034Z,15.80
2022-10-29T16:49:41.902Z,16.10
2022-10-29T16:52:44.980Z,15.60
2022-10-29T16:55:47.908Z,16.20
2022-10-29T16:58:50.779Z,18.20
2022-10-29T17:01:53.700Z,17.40
2022-10-29T17:04:56.640Z,17.20
2022-10-29T17:07:59.517Z,16.50
2022-10-29T17:11:05.902Z,16.50
2022-10-29T17:14:09.220Z,16.00
2022-10-29T17:17:12.092Z,16.30
2022-10-29T17:20:15.309Z,16.30
2022-10-29T17:23:18.199Z,17.00
2022-10-29T17:26:21.151Z,17.40
2022-10-29T17:29:24.116Z,16.50
2022-10-29T17:32:32.710Z,17.80
2022-10-29T17:35:35.614Z,17.80
2022-10-29T17:38:38.550Z,18.30
2022-10-29T17:41:41.518Z,18.10
2022-10-29T17:44:44.585Z,18.70
2022-10-29T17:47:47.419Z,18.10
2022-10-29T17:50:57.377Z,18.70
2022-10-29T17:54:01.985Z,18.60
2022-10-29T17:57:05.900Z,19.80
2022-10-29T18:00:09.373Z,20.20
2022-10-29T18:03:12.357Z,19.50
2022-10-29T18:06:15.791Z,19.60
2022-10-29T18:09:21.128Z,19.70
2022-10-29T18:12:24.294Z,19.60
2022-10-29T18:15:27.830Z,18.20
2022-10-29T18:18:47.974Z,19.20
2022-10-29T18:21:57.873Z,19.50
2022-10-29T18:25:00.970Z,19.00
2022-10-29T18:28:03.926Z,19.10
2022-10-29T18:31:06.883Z,19.40
2022-10-29T18:34:09.675Z,18.80
2022-10-29T18:37:12.586Z,19.50
2022-10-29T18:40:15.475Z,19.30
2022-10-29T18:43:18.385Z,18.70
2022-10-29T18:46:21.889Z,18.30
2022-10-29T18:49:25.520Z,20.50
2022-10-29T18:52:28.634Z,20.80
2022-10-29T18:55:31.596Z,20.60
2022-10-29T18:58:34.426Z,21.60
2022-10-29T19:01:37.845Z,22.30
2022-10-29T19:04:40.813Z,21.20
2022-10-29T19:07:44.176Z,21.70
2022-10-29T19:10:47.099Z,22.10
2022-10-29T19:13:53.448Z,23.50
2022-10-29T19:16:56.867Z,24.00
2022-10-29T19:20:00.627Z,24.40
2022-10-29T19:23:04.442Z,24.80
2022-10-29T19:26:10.632Z,27.50
2022-10-29T19:29:15.137Z,26.50
2022-10-29T19:32:18.496Z,27.40
2022-10-29T19:35:21.711Z,27.20
2022-10-29T19:38:25.549Z,26.10
2022-10-29T19:41:29.573Z,27.00
2022-10-29T19:44:32.806Z,26.80
2022-10-29T19:47:45.480Z,25.50
2022-10-29T19:50:56.496Z,25.80
2022-10-29T19:54:05.294Z,25.20
2022-10-29T19:57:09.244Z,25.30
2022-10-29T20:00:16.722Z,24.50
2022-10-29T20:03:21.856Z,24.70
2022-10-29T20:06:28.727Z,25.90
2022-10-29T20:09:33.890Z,25.40
2022-10-29T20:12:36.760Z,26.30
2022-10-29T20:15:40.220Z,27.10
2022-10-29T20:18:46.673Z,26.40
2022-10-29T20:21:49.582Z,25.80
2022-10-29T20:24:52.472Z,23.60
2022-10-29T20:27:55.563Z,24.10
2022-10-29T20:31:12.522Z,23.40
2022-10-29T20:34:15.699Z,23.80
2022-10-29T20:37:20.482Z,24.80
2022-10-29T20:40:23.898Z,25.80
2022-10-29T20:43:28.519Z,24.60
2022-10-29T20:46:31.907Z,25.50
2022-10-29T20:49:34.781Z,24.40
2022-10-29T20:52:37.561Z,23.10
2022-10-29T20:55:40.931Z,24.80
2022-10-29T20:58:46.492Z,25.80
2022-10-29T21:01:52.973Z,22.40
2022-10-29T21:05:00.039Z,22.30
2022-10-29T21:08:04.715Z,24.50
2022-10-29T21:14:29.898Z,23.90
2022-10-29T21:17:36.304Z,24.70
2022-10-29T21:20:41.880Z,23.80
2022-10-29T21:23:45.298Z,22.90
2022-10-29T21:26:49.717Z,23.90
2022-10-29T21:29:59.302Z,25.20
2022-10-29T21:33:02.340Z,23.60
2022-10-29T21:36:05.745Z,22.40
2022-10-29T21:39:09.467Z,22.00
2022-10-29T21:42:12.485Z,22.40
2022-10-29T21:45:15.999Z,22.40
2022-10-29T21:48:19.730Z,22.10
2022-10-29T21:51:22.610Z,20.60
2022-10-29T21:54:28.264Z,20.90
2022-10-29T21:57:31.531Z,20.90
2022-10-29T22:00:34.459Z,20.60
2022-10-29T22:03:41.363Z,21.70
2022-10-29T22:06:44.314Z,21.40
2022-10-29T22:09:47.157Z,22.40
2022-10-29T22:12:50.046Z,20.90
2022-10-29T22:15:52.908Z,20.90
2022-10-29T22:18:55.718Z,21.60
2022-10-29T22:21:58.543Z,21.50
2022-10-29T22:25:01.426Z,21.10
2022-10-29T22:28:04.594Z,19.30
2022-10-29T22:31:07.922Z,20.60
2022-10-29T22:34:10.847Z,19.90
2022-10-29T22:37:13.694Z,19.60
2022-10-29T22:40:16.519Z,20.70
2022-10-29T22:43:19.344Z,20.10
2022-10-29T22:46:22.498Z,21.00
2022-10-29T22:49:25.317Z,20.10
2022-10-29T22:52:28.200Z,20.90
2022-10-29T22:55:31.107Z,20.90
2022-10-29T22:58:34.043Z,20.20
2022-10-29T23:01:42.082Z,20.30
2022-10-29T23:04:48.075Z,19.30
2022-10-29T23:07:50.908Z,19.50
2022-10-29T23:10:53.815Z,19.50
2022-10-29T23:14:01.462Z,19.40
2022-10-29T23:17:05.195Z,19.30
2022-10-29T23:20:08.114Z,20.80
2022-10-29T23:23:11.235Z,21.50
2022-10-29T23:26:15.300Z,21.40
2022-10-29T23:29:18.187Z,21.90
2022-10-29T23:32:21.009Z,20.00
2022-10-29T23:35:23.857Z,22.10
2022-10-29T23:38:26.684Z,20.50
2022-10-29T23:41:30.922Z,20.10
2022-10-29T23:44:33.791Z,20.80
2022-10-29T23:47:36.671Z,21.90
2022-10-29T23:50:40.500Z,22.20
2022-10-29T23:53:43.380Z,21.90
2022-10-29T23:56:46.212Z,22.10
2022-10-29T23:59:49.110Z,21.50
